sensor_id;sensor_type;location;lat;lon;timestamp;pressure;altitude;pressure_sealevel;temperature;humidity
60817;BME280;51921;51.518;-3.188;2023-12-22T00:00:47;101107.15;;;5.87;100.00
60817;BME280;51921;51.518;-3.188;2023-12-22T00:03:12;101122.49;;;5.88;100.00
60817;BME280;51921;51.518;-3.188;2023-12-22T00:05:38;101121.24;;;6.00;100.00
60817;BME280;51921;51.518;-3.188;2023-12-22T00:08:04;101127.40;;;5.87;100.00
60817;BME280;51921;51.518;-3.188;2023-12-22T00:10:28;101124.71;;;6.05;100.00
60817;BME280;51921;51.518;-3.188;2023-12-22T00:12:54;101123.92;;;6.05;100.00
60817;BME280;51921;51.518;-3.188;2023-12-22T00:15:19;101115.29;;;6.11;100.00
60817;BME280;51921;51.518;-3.188;2023-12-22T00:17:45;101116.16;;;6.00;100.00
60817;BME280;51921;51.518;-3.188;2023-12-22T00:20:11;101115.10;;;6.10;100.00
60817;BME280;51921;51.518;-3.188;2023-12-22T00:22:36;101107.55;;;5.95;100.00
60817;BME280;51921;51.518;-3.188;2023-12-22T00:25:01;101099.38;;;6.04;100.00
60817;BME280;51921;51.518;-3.188;2023-12-22T00:27:27;101110.04;;;5.60;100.00
60817;BME280;51921;51.518;-3.188;2023-12-22T00:29:53;101110.53;;;6.03;100.00
60817;BME280;51921;51.518;-3.188;2023-12-22T00:32:18;101107.78;;;5.78;100.00
60817;BME280;51921;51.518;-3.188;2023-12-22T00:34:44;101099.90;;;5.79;100.00
60817;BME280;51921;51.518;-3.188;2023-12-22T00:37:09;101101.72;;;5.92;100.00
60817;BME280;51921;51.518;-3.188;2023-12-22T00:39:34;101107.40;;;6.00;100.00
60817;BME280;51921;51.518;-3.188;2023-12-22T00:42:00;101101.08;;;6.13;100.00
60817;BME280;51921;51.518;-3.188;2023-12-22T00:44:25;101107.14;;;6.08;100.00
60817;BME280;51921;51.518;-3.188;2023-12-22T00:46:51;101109.20;;;6.26;100.00
60817;BME280;51921;51.518;-3.188;2023-12-22T00:49:16;101106.97;;;6.27;100.00
60817;BME280;51921;51.518;-3.188;2023-12-22T00:51:42;101114.26;;;6.04;100.00
60817;BME280;51921;51.518;-3.188;2023-12-22T00:54:07;101106.13;;;6.03;100.00
60817;BME280;51921;51.518;-3.188;2023-12-22T00:56:33;101102.81;;;6.02;100.00
60817;BME280;51921;51.518;-3.188;2023-12-22T00:58:58;101104.20;;;6.18;100.00
60817;BME280;51921;51.518;-3.188;2023-12-22T01:01:24;101097.77;;;6.40;100.00
60817;BME280;51921;51.518;-3.188;2023-12-22T01:03:49;101095.06;;;6.39;100.00
60817;BME280;51921;51.518;-3.188;2023-12-22T01:06:15;101078.52;;;6.33;100.00
60817;BME280;51921;51.518;-3.188;2023-12-22T01:08:40;101091.05;;;6.26;100.00
60817;BME280;51921;51.518;-3.188;2023-12-22T01:11:06;101079.70;;;6.31;100.00
60817;BME280;51921;51.518;-3.188;2023-12-22T01:13:31;101083.66;;;6.13;100.00
60817;BME280;51921;51.518;-3.188;2023-12-22T01:15:57;101076.05;;;6.12;100.00
60817;BME280;51921;51.518;-3.188;2023-12-22T01:18:22;101077.66;;;6.11;100.00
60817;BME280;51921;51.518;-3.188;2023-12-22T01:20:48;101087.73;;;6.05;100.00
60817;BME280;51921;51.518;-3.188;2023-12-22T01:23:13;101079.28;;;5.99;100.00
60817;BME280;51921;51.518;-3.188;2023-12-22T01:25:39;101068.37;;;6.15;100.00
60817;BME280;51921;51.518;-3.188;2023-12-22T01:28:05;101072.35;;;6.20;100.00
60817;BME280;51921;51.518;-3.188;2023-12-22T01:30:30;101071.58;;;6.20;100.00
60817;BME280;51921;51.518;-3.188;2023-12-22T01:32:55;101069.78;;;6.12;100.00
60817;BME280;51921;51.518;-3.188;2023-12-22T01:35:21;101083.11;;;6.07;100.00
60817;BME280;51921;51.518;-3.188;2023-12-22T01:37:46;101085.29;;;6.06;100.00
60817;BME280;51921;51.518;-3.188;2023-12-22T01:40:12;101075.57;;;5.94;100.00
60817;BME280;51921;51.518;-3.188;2023-12-22T01:42:37;101077.45;;;6.32;100.00
60817;BME280;51921;51.518;-3.188;2023-12-22T01:45:03;101077.55;;;6.59;100.00
60817;BME280;51921;51.518;-3.188;2023-12-22T01:47:28;101076.37;;;6.43;100.00
60817;BME280;51921;51.518;-3.188;2023-12-22T01:49:54;101072.24;;;6.43;100.00
60817;BME280;51921;51.518;-3.188;2023-12-22T01:52:19;101083.55;;;6.04;100.00
60817;BME280;51921;51.518;-3.188;2023-12-22T01:54:45;101072.82;;;6.52;100.00
60817;BME280;51921;51.518;-3.188;2023-12-22T01:57:13;101076.42;;;6.45;100.00
60817;BME280;51921;51.518;-3.188;2023-12-22T01:59:35;101073.03;;;6.30;100.00
60817;BME280;51921;51.518;-3.188;2023-12-22T02:02:02;101079.45;;;6.57;100.00
60817;BME280;51921;51.518;-3.188;2023-12-22T02:04:27;101082.90;;;6.29;100.00
60817;BME280;51921;51.518;-3.188;2023-12-22T02:06:52;101095.39;;;6.29;100.00
60817;BME280;51921;51.518;-3.188;2023-12-22T02:09:17;101093.62;;;6.44;100.00
60817;BME280;51921;51.518;-3.188;2023-12-22T02:11:43;101093.67;;;6.75;100.00
60817;BME280;51921;51.518;-3.188;2023-12-22T02:14:08;101100.19;;;6.45;100.00
60817;BME280;51921;51.518;-3.188;2023-12-22T02:16:40;101097.91;;;6.15;100.00
60817;BME280;51921;51.518;-3.188;2023-12-22T02:19:03;101094.84;;;6.68;100.00
60817;BME280;51921;51.518;-3.188;2023-12-22T02:21:25;101086.62;;;6.58;100.00
60817;BME280;51921;51.518;-3.188;2023-12-22T02:23:50;101081.57;;;6.69;100.00
60817;BME280;51921;51.518;-3.188;2023-12-22T02:26:21;101081.11;;;6.33;100.00
60817;BME280;51921;51.518;-3.188;2023-12-22T02:28:42;101098.83;;;6.29;100.00
60817;BME280;51921;51.518;-3.188;2023-12-22T02:31:13;101087.88;;;6.40;100.00
60817;BME280;51921;51.518;-3.188;2023-12-22T02:33:34;101097.13;;;6.53;100.00
60817;BME280;51921;51.518;-3.188;2023-12-22T02:36:02;101092.38;;;6.63;100.00
60817;BME280;51921;51.518;-3.188;2023-12-22T02:38:23;101088.25;;;6.46;100.00
60817;BME280;51921;51.518;-3.188;2023-12-22T02:40:48;101091.66;;;6.54;100.00
60817;BME280;51921;51.518;-3.188;2023-12-22T02:43:13;101091.12;;;6.08;100.00
60817;BME280;51921;51.518;-3.188;2023-12-22T02:45:38;101090.57;;;6.33;100.00
60817;BME280;51921;51.518;-3.188;2023-12-22T02:48:05;101091.40;;;6.04;100.00
60817;BME280;51921;51.518;-3.188;2023-12-22T02:50:29;101096.19;;;6.06;100.00
60817;BME280;51921;51.518;-3.188;2023-12-22T02:52:55;101093.15;;;6.25;100.00
60817;BME280;51921;51.518;-3.188;2023-12-22T02:55:20;101087.29;;;6.42;100.00
60817;BME280;51921;51.518;-3.188;2023-12-22T02:57:46;101085.90;;;6.22;100.00
60817;BME280;51921;51.518;-3.188;2023-12-22T03:00:12;101088.79;;;6.43;100.00
60817;BME280;51921;51.518;-3.188;2023-12-22T03:02:37;101097.15;;;6.50;100.00
60817;BME280;51921;51.518;-3.188;2023-12-22T03:05:02;101095.75;;;6.00;100.00
60817;BME280;51921;51.518;-3.188;2023-12-22T03:07:27;101089.17;;;5.95;100.00
60817;BME280;51921;51.518;-3.188;2023-12-22T03:09:53;101084.98;;;6.42;100.00
60817;BME280;51921;51.518;-3.188;2023-12-22T03:12:18;101080.99;;;6.72;100.00
60817;BME280;51921;51.518;-3.188;2023-12-22T03:14:44;101086.78;;;6.18;100.00
60817;BME280;51921;51.518;-3.188;2023-12-22T03:17:09;101087.95;;;6.13;100.00
60817;BME280;51921;51.518;-3.188;2023-12-22T03:19:35;101081.61;;;6.30;100.00
60817;BME280;51921;51.518;-3.188;2023-12-22T03:22:01;101084.76;;;6.62;100.00
60817;BME280;51921;51.518;-3.188;2023-12-22T03:24:27;101077.41;;;6.12;100.00
60817;BME280;51921;51.518;-3.188;2023-12-22T03:26:52;101073.76;;;6.26;100.00
60817;BME280;51921;51.518;-3.188;2023-12-22T03:29:18;101064.45;;;6.15;100.00
60817;BME280;51921;51.518;-3.188;2023-12-22T03:31:43;101073.37;;;6.34;100.00
60817;BME280;51921;51.518;-3.188;2023-12-22T03:34:09;101057.04;;;6.04;100.00
60817;BME280;51921;51.518;-3.188;2023-12-22T03:36:34;101066.25;;;6.17;100.00
60817;BME280;51921;51.518;-3.188;2023-12-22T03:39:00;101063.23;;;6.09;100.00
60817;BME280;51921;51.518;-3.188;2023-12-22T03:41:25;101066.88;;;6.27;100.00
60817;BME280;51921;51.518;-3.188;2023-12-22T03:43:50;101057.29;;;6.06;100.00
60817;BME280;51921;51.518;-3.188;2023-12-22T03:46:16;101062.69;;;5.92;100.00
60817;BME280;51921;51.518;-3.188;2023-12-22T03:48:41;101057.81;;;6.04;100.00
60817;BME280;51921;51.518;-3.188;2023-12-22T03:51:07;101061.12;;;6.12;100.00
60817;BME280;51921;51.518;-3.188;2023-12-22T03:53:32;101067.26;;;6.01;100.00
60817;BME280;51921;51.518;-3.188;2023-12-22T03:55:58;101071.02;;;6.31;100.00
60817;BME280;51921;51.518;-3.188;2023-12-22T03:58:23;101071.53;;;6.30;100.00
60817;BME280;51921;51.518;-3.188;2023-12-22T04:00:49;101066.19;;;5.99;100.00
60817;BME280;51921;51.518;-3.188;2023-12-22T04:03:14;101067.88;;;6.13;100.00
60817;BME280;51921;51.518;-3.188;2023-12-22T04:05:39;101071.48;;;6.62;100.00
60817;BME280;51921;51.518;-3.188;2023-12-22T04:08:06;101067.61;;;6.57;100.00
60817;BME280;51921;51.518;-3.188;2023-12-22T04:10:30;101067.71;;;6.38;100.00
60817;BME280;51921;51.518;-3.188;2023-12-22T04:12:56;101059.42;;;6.14;100.00
60817;BME280;51921;51.518;-3.188;2023-12-22T04:15:21;101067.83;;;6.84;100.00
60817;BME280;51921;51.518;-3.188;2023-12-22T04:17:47;101059.46;;;6.17;100.00
60817;BME280;51921;51.518;-3.188;2023-12-22T04:20:12;101070.45;;;6.19;100.00
60817;BME280;51921;51.518;-3.188;2023-12-22T04:22:38;101068.60;;;6.27;100.00
60817;BME280;51921;51.518;-3.188;2023-12-22T04:25:04;101068.31;;;6.24;100.00
60817;BME280;51921;51.518;-3.188;2023-12-22T04:27:29;101064.94;;;6.04;100.00
60817;BME280;51921;51.518;-3.188;2023-12-22T04:29:54;101060.77;;;6.92;100.00
60817;BME280;51921;51.518;-3.188;2023-12-22T04:32:20;101065.46;;;6.49;100.00
60817;BME280;51921;51.518;-3.188;2023-12-22T04:34:45;101067.13;;;6.34;100.00
60817;BME280;51921;51.518;-3.188;2023-12-22T04:37:11;101060.98;;;6.37;100.00
60817;BME280;51921;51.518;-3.188;2023-12-22T04:39:36;101071.06;;;6.70;100.00
60817;BME280;51921;51.518;-3.188;2023-12-22T04:42:02;101070.18;;;6.42;100.00
60817;BME280;51921;51.518;-3.188;2023-12-22T04:44:27;101064.83;;;6.22;100.00
60817;BME280;51921;51.518;-3.188;2023-12-22T04:46:53;101072.30;;;6.24;100.00
60817;BME280;51921;51.518;-3.188;2023-12-22T04:49:18;101077.42;;;5.92;100.00
60817;BME280;51921;51.518;-3.188;2023-12-22T04:51:44;101071.92;;;6.11;100.00
60817;BME280;51921;51.518;-3.188;2023-12-22T04:54:09;101071.06;;;6.27;100.00
60817;BME280;51921;51.518;-3.188;2023-12-22T04:56:35;101065.63;;;6.21;100.00
60817;BME280;51921;51.518;-3.188;2023-12-22T04:59:00;101067.63;;;6.41;100.00
60817;BME280;51921;51.518;-3.188;2023-12-22T05:01:26;101070.72;;;6.27;100.00
60817;BME280;51921;51.518;-3.188;2023-12-22T05:03:51;101074.73;;;6.08;100.00
60817;BME280;51921;51.518;-3.188;2023-12-22T05:06:17;101067.52;;;6.38;100.00
60817;BME280;51921;51.518;-3.188;2023-12-22T05:08:42;101064.35;;;6.28;100.00
60817;BME280;51921;51.518;-3.188;2023-12-22T05:11:08;101063.29;;;6.33;100.00
60817;BME280;51921;51.518;-3.188;2023-12-22T05:13:33;101074.25;;;6.69;100.00
60817;BME280;51921;51.518;-3.188;2023-12-22T05:15:59;101079.63;;;6.26;100.00
60817;BME280;51921;51.518;-3.188;2023-12-22T05:18:26;101084.84;;;6.29;100.00
60817;BME280;51921;51.518;-3.188;2023-12-22T05:20:49;101085.68;;;6.03;100.00
60817;BME280;51921;51.518;-3.188;2023-12-22T05:23:15;101085.16;;;6.17;100.00
60817;BME280;51921;51.518;-3.188;2023-12-22T05:25:40;101087.86;;;6.43;100.00
60817;BME280;51921;51.518;-3.188;2023-12-22T05:28:06;101091.73;;;6.53;100.00
60817;BME280;51921;51.518;-3.188;2023-12-22T05:30:31;101093.05;;;5.72;100.00
60817;BME280;51921;51.518;-3.188;2023-12-22T05:32:57;101097.82;;;6.26;100.00
60817;BME280;51921;51.518;-3.188;2023-12-22T05:35:22;101091.02;;;6.54;100.00
60817;BME280;51921;51.518;-3.188;2023-12-22T05:37:48;101074.53;;;5.91;100.00
60817;BME280;51921;51.518;-3.188;2023-12-22T05:40:13;101086.32;;;5.92;100.00
60817;BME280;51921;51.518;-3.188;2023-12-22T05:42:38;101078.97;;;5.81;100.00
60817;BME280;51921;51.518;-3.188;2023-12-22T05:45:05;101092.02;;;5.75;100.00
60817;BME280;51921;51.518;-3.188;2023-12-22T05:47:29;101089.37;;;5.78;100.00
60817;BME280;51921;51.518;-3.188;2023-12-22T05:49:55;101089.55;;;5.56;100.00
60817;BME280;51921;51.518;-3.188;2023-12-22T05:52:20;101094.80;;;5.93;100.00
60817;BME280;51921;51.518;-3.188;2023-12-22T05:54:46;101086.21;;;5.54;100.00
60817;BME280;51921;51.518;-3.188;2023-12-22T05:57:11;101096.84;;;5.94;100.00
60817;BME280;51921;51.518;-3.188;2023-12-22T05:59:36;101090.85;;;5.75;100.00
60817;BME280;51921;51.518;-3.188;2023-12-22T06:02:02;101090.59;;;5.70;100.00
60817;BME280;51921;51.518;-3.188;2023-12-22T06:04:27;101089.59;;;5.41;100.00
60817;BME280;51921;51.518;-3.188;2023-12-22T06:06:53;101092.02;;;5.78;100.00
60817;BME280;51921;51.518;-3.188;2023-12-22T06:09:18;101103.48;;;5.52;100.00
60817;BME280;51921;51.518;-3.188;2023-12-22T06:11:44;101107.05;;;5.71;100.00
60817;BME280;51921;51.518;-3.188;2023-12-22T06:14:09;101108.05;;;5.68;100.00
60817;BME280;51921;51.518;-3.188;2023-12-22T06:16:35;101108.93;;;5.26;100.00
60817;BME280;51921;51.518;-3.188;2023-12-22T06:19:00;101112.46;;;5.37;100.00
60817;BME280;51921;51.518;-3.188;2023-12-22T06:21:26;101122.44;;;5.42;100.00
60817;BME280;51921;51.518;-3.188;2023-12-22T06:23:51;101124.13;;;5.52;100.00
60817;BME280;51921;51.518;-3.188;2023-12-22T06:26:17;101119.80;;;5.19;100.00
60817;BME280;51921;51.518;-3.188;2023-12-22T06:28:42;101124.85;;;5.45;100.00
60817;BME280;51921;51.518;-3.188;2023-12-22T06:31:15;101125.59;;;5.11;100.00
60817;BME280;51921;51.518;-3.188;2023-12-22T06:33:33;101114.11;;;4.84;100.00
60817;BME280;51921;51.518;-3.188;2023-12-22T06:35:59;101113.41;;;4.84;100.00
60817;BME280;51921;51.518;-3.188;2023-12-22T06:38:24;101099.08;;;5.04;100.00
60817;BME280;51921;51.518;-3.188;2023-12-22T06:40:50;101084.92;;;5.13;100.00
60817;BME280;51921;51.518;-3.188;2023-12-22T06:43:15;101095.62;;;5.09;100.00
60817;BME280;51921;51.518;-3.188;2023-12-22T06:45:41;101096.36;;;5.44;100.00
60817;BME280;51921;51.518;-3.188;2023-12-22T06:48:07;101096.33;;;5.15;100.00
60817;BME280;51921;51.518;-3.188;2023-12-22T06:50:32;101101.19;;;5.23;100.00
60817;BME280;51921;51.518;-3.188;2023-12-22T06:52:57;101109.17;;;5.18;100.00
60817;BME280;51921;51.518;-3.188;2023-12-22T06:55:23;101106.15;;;5.08;100.00
60817;BME280;51921;51.518;-3.188;2023-12-22T06:57:49;101106.31;;;4.83;100.00
60817;BME280;51921;51.518;-3.188;2023-12-22T07:00:15;101114.66;;;4.76;100.00
60817;BME280;51921;51.518;-3.188;2023-12-22T07:02:39;101124.52;;;5.09;100.00
60817;BME280;51921;51.518;-3.188;2023-12-22T07:07:30;101142.53;;;5.31;100.00
60817;BME280;51921;51.518;-3.188;2023-12-22T07:09:56;101133.34;;;5.38;100.00
60817;BME280;51921;51.518;-3.188;2023-12-22T07:12:22;101146.57;;;5.24;100.00
60817;BME280;51921;51.518;-3.188;2023-12-22T07:14:47;101150.86;;;5.15;100.00
60817;BME280;51921;51.518;-3.188;2023-12-22T07:17:12;101149.85;;;4.77;100.00
60817;BME280;51921;51.518;-3.188;2023-12-22T07:19:38;101143.94;;;5.14;100.00
60817;BME280;51921;51.518;-3.188;2023-12-22T07:22:04;101133.44;;;4.86;100.00
60817;BME280;51921;51.518;-3.188;2023-12-22T07:24:29;101126.20;;;5.22;100.00
60817;BME280;51921;51.518;-3.188;2023-12-22T07:26:54;101136.83;;;5.03;100.00
60817;BME280;51921;51.518;-3.188;2023-12-22T07:29:20;101130.19;;;5.15;100.00
60817;BME280;51921;51.518;-3.188;2023-12-22T07:31:45;101121.18;;;5.20;100.00
60817;BME280;51921;51.518;-3.188;2023-12-22T07:34:11;101130.60;;;5.18;100.00
60817;BME280;51921;51.518;-3.188;2023-12-22T07:36:36;101121.33;;;5.23;100.00
60817;BME280;51921;51.518;-3.188;2023-12-22T07:39:02;101131.53;;;5.08;100.00
60817;BME280;51921;51.518;-3.188;2023-12-22T07:41:27;101121.97;;;5.09;100.00
60817;BME280;51921;51.518;-3.188;2023-12-22T07:43:53;101121.64;;;4.99;100.00
60817;BME280;51921;51.518;-3.188;2023-12-22T07:46:19;101130.56;;;5.08;100.00
60817;BME280;51921;51.518;-3.188;2023-12-22T07:48:44;101116.76;;;5.03;100.00
60817;BME280;51921;51.518;-3.188;2023-12-22T07:51:09;101114.41;;;5.28;100.00
60817;BME280;51921;51.518;-3.188;2023-12-22T07:53:35;101130.91;;;5.06;100.00
60817;BME280;51921;51.518;-3.188;2023-12-22T07:56:00;101116.43;;;5.43;100.00
60817;BME280;51921;51.518;-3.188;2023-12-22T07:58:26;101134.24;;;5.04;100.00
60817;BME280;51921;51.518;-3.188;2023-12-22T08:00:51;101128.50;;;4.83;100.00
60817;BME280;51921;51.518;-3.188;2023-12-22T08:03:17;101131.65;;;5.15;100.00
60817;BME280;51921;51.518;-3.188;2023-12-22T08:05:42;101142.82;;;5.59;100.00
60817;BME280;51921;51.518;-3.188;2023-12-22T08:08:07;101148.41;;;5.18;100.00
60817;BME280;51921;51.518;-3.188;2023-12-22T08:10:33;101150.05;;;5.13;100.00
60817;BME280;51921;51.518;-3.188;2023-12-22T08:12:58;101142.57;;;5.14;100.00
60817;BME280;51921;51.518;-3.188;2023-12-22T08:15:24;101146.44;;;4.91;100.00
60817;BME280;51921;51.518;-3.188;2023-12-22T08:17:50;101150.79;;;5.18;100.00
60817;BME280;51921;51.518;-3.188;2023-12-22T08:20:17;101147.92;;;5.47;100.00
60817;BME280;51921;51.518;-3.188;2023-12-22T08:22:41;101157.83;;;4.87;100.00
60817;BME280;51921;51.518;-3.188;2023-12-22T08:25:06;101173.18;;;4.84;100.00
60817;BME280;51921;51.518;-3.188;2023-12-22T08:27:31;101162.21;;;5.36;100.00
60817;BME280;51921;51.518;-3.188;2023-12-22T08:29:57;101163.54;;;5.00;100.00
60817;BME280;51921;51.518;-3.188;2023-12-22T08:32:22;101161.81;;;5.33;100.00
60817;BME280;51921;51.518;-3.188;2023-12-22T08:34:48;101151.20;;;5.18;100.00
60817;BME280;51921;51.518;-3.188;2023-12-22T08:37:13;101153.16;;;4.66;100.00
60817;BME280;51921;51.518;-3.188;2023-12-22T08:39:39;101154.60;;;5.26;100.00
60817;BME280;51921;51.518;-3.188;2023-12-22T08:42:04;101157.54;;;5.04;100.00
60817;BME280;51921;51.518;-3.188;2023-12-22T08:44:29;101161.82;;;5.17;100.00
60817;BME280;51921;51.518;-3.188;2023-12-22T08:46:55;101159.36;;;5.01;100.00
60817;BME280;51921;51.518;-3.188;2023-12-22T08:49:21;101165.81;;;5.07;100.00
60817;BME280;51921;51.518;-3.188;2023-12-22T08:51:46;101174.95;;;5.19;100.00
60817;BME280;51921;51.518;-3.188;2023-12-22T08:54:11;101164.33;;;5.11;100.00
60817;BME280;51921;51.518;-3.188;2023-12-22T08:56:37;101163.90;;;5.46;100.00
60817;BME280;51921;51.518;-3.188;2023-12-22T08:59:02;101171.27;;;5.12;100.00
60817;BME280;51921;51.518;-3.188;2023-12-22T09:01:28;101172.98;;;5.23;100.00
60817;BME280;51921;51.518;-3.188;2023-12-22T09:03:53;101181.17;;;5.50;100.00
60817;BME280;51921;51.518;-3.188;2023-12-22T09:06:20;101175.40;;;5.45;100.00
60817;BME280;51921;51.518;-3.188;2023-12-22T09:08:45;101180.15;;;5.75;100.00
60817;BME280;51921;51.518;-3.188;2023-12-22T09:11:12;101183.17;;;5.56;100.00
60817;BME280;51921;51.518;-3.188;2023-12-22T09:13:36;101177.95;;;5.28;100.00
60817;BME280;51921;51.518;-3.188;2023-12-22T09:16:01;101179.06;;;5.51;100.00
60817;BME280;51921;51.518;-3.188;2023-12-22T09:18:27;101170.76;;;5.42;100.00
60817;BME280;51921;51.518;-3.188;2023-12-22T09:20:52;101180.39;;;5.39;100.00
60817;BME280;51921;51.518;-3.188;2023-12-22T09:23:18;101185.50;;;5.40;100.00
60817;BME280;51921;51.518;-3.188;2023-12-22T09:25:44;101172.92;;;5.62;100.00
60817;BME280;51921;51.518;-3.188;2023-12-22T09:28:09;101167.72;;;5.58;100.00
60817;BME280;51921;51.518;-3.188;2023-12-22T09:30:34;101177.46;;;5.43;100.00
60817;BME280;51921;51.518;-3.188;2023-12-22T09:33:00;101186.99;;;5.24;100.00
60817;BME280;51921;51.518;-3.188;2023-12-22T09:35:25;101174.95;;;5.84;100.00
60817;BME280;51921;51.518;-3.188;2023-12-22T09:37:51;101184.72;;;5.70;100.00
60817;BME280;51921;51.518;-3.188;2023-12-22T09:40:16;101178.24;;;5.60;100.00
60817;BME280;51921;51.518;-3.188;2023-12-22T09:42:42;101181.63;;;5.82;100.00
60817;BME280;51921;51.518;-3.188;2023-12-22T09:45:08;101185.50;;;5.81;100.00
60817;BME280;51921;51.518;-3.188;2023-12-22T09:47:33;101195.09;;;5.40;100.00
60817;BME280;51921;51.518;-3.188;2023-12-22T09:49:58;101193.88;;;6.14;100.00
60817;BME280;51921;51.518;-3.188;2023-12-22T09:52:24;101195.18;;;5.72;100.00
60817;BME280;51921;51.518;-3.188;2023-12-22T09:54:49;101211.13;;;5.60;100.00
60817;BME280;51921;51.518;-3.188;2023-12-22T09:57:15;101209.37;;;5.64;100.00
60817;BME280;51921;51.518;-3.188;2023-12-22T09:59:40;101217.38;;;5.79;100.00
60817;BME280;51921;51.518;-3.188;2023-12-22T10:02:07;101219.68;;;5.86;100.00
60817;BME280;51921;51.518;-3.188;2023-12-22T10:04:31;101226.30;;;6.40;100.00
60817;BME280;51921;51.518;-3.188;2023-12-22T10:06:58;101226.16;;;5.87;100.00
60817;BME280;51921;51.518;-3.188;2023-12-22T10:09:22;101230.96;;;5.84;100.00
60817;BME280;51921;51.518;-3.188;2023-12-22T10:11:49;101223.27;;;5.85;100.00
60817;BME280;51921;51.518;-3.188;2023-12-22T10:14:14;101239.91;;;6.12;100.00
60817;BME280;51921;51.518;-3.188;2023-12-22T10:16:38;101239.95;;;5.51;100.00
60817;BME280;51921;51.518;-3.188;2023-12-22T10:19:05;101241.14;;;5.74;100.00
60817;BME280;51921;51.518;-3.188;2023-12-22T10:21:29;101241.60;;;5.97;100.00
60817;BME280;51921;51.518;-3.188;2023-12-22T10:23:55;101254.63;;;5.93;100.00
60817;BME280;51921;51.518;-3.188;2023-12-22T10:26:20;101256.97;;;5.84;100.00
60817;BME280;51921;51.518;-3.188;2023-12-22T10:28:47;101259.65;;;5.76;100.00
60817;BME280;51921;51.518;-3.188;2023-12-22T10:31:11;101265.11;;;5.87;100.00
60817;BME280;51921;51.518;-3.188;2023-12-22T10:33:37;101265.81;;;6.10;100.00
60817;BME280;51921;51.518;-3.188;2023-12-22T10:36:02;101274.27;;;6.17;100.00
60817;BME280;51921;51.518;-3.188;2023-12-22T10:38:32;101267.75;;;6.02;100.00
60817;BME280;51921;51.518;-3.188;2023-12-22T10:40:53;101272.31;;;5.95;100.00
60817;BME280;51921;51.518;-3.188;2023-12-22T10:43:18;101283.29;;;6.00;100.00
60817;BME280;51921;51.518;-3.188;2023-12-22T10:45:44;101280.14;;;6.28;100.00
60817;BME280;51921;51.518;-3.188;2023-12-22T10:48:10;101284.44;;;6.33;100.00
60817;BME280;51921;51.518;-3.188;2023-12-22T10:50:34;101294.16;;;6.18;100.00
60817;BME280;51921;51.518;-3.188;2023-12-22T10:53:00;101283.75;;;6.50;100.00
60817;BME280;51921;51.518;-3.188;2023-12-22T10:55:25;101290.73;;;6.31;100.00
60817;BME280;51921;51.518;-3.188;2023-12-22T10:57:51;101300.15;;;6.25;100.00
60817;BME280;51921;51.518;-3.188;2023-12-22T11:00:17;101294.01;;;6.32;100.00
60817;BME280;51921;51.518;-3.188;2023-12-22T11:02:42;101300.00;;;6.03;100.00
60817;BME280;51921;51.518;-3.188;2023-12-22T11:05:10;101299.24;;;6.04;100.00
60817;BME280;51921;51.518;-3.188;2023-12-22T11:07:35;101285.33;;;6.19;100.00
60817;BME280;51921;51.518;-3.188;2023-12-22T11:10:01;101285.71;;;5.88;100.00
60817;BME280;51921;51.518;-3.188;2023-12-22T11:12:23;101288.68;;;6.30;100.00
60817;BME280;51921;51.518;-3.188;2023-12-22T11:14:49;101290.50;;;6.33;100.00
60817;BME280;51921;51.518;-3.188;2023-12-22T11:17:14;101287.33;;;6.21;100.00
60817;BME280;51921;51.518;-3.188;2023-12-22T11:19:40;101282.84;;;6.26;100.00
60817;BME280;51921;51.518;-3.188;2023-12-22T11:22:06;101285.36;;;6.16;100.00
60817;BME280;51921;51.518;-3.188;2023-12-22T11:24:31;101272.67;;;6.40;100.00
60817;BME280;51921;51.518;-3.188;2023-12-22T11:26:58;101267.98;;;6.60;100.00
60817;BME280;51921;51.518;-3.188;2023-12-22T11:29:23;101267.53;;;6.88;100.00
60817;BME280;51921;51.518;-3.188;2023-12-22T11:31:50;101261.00;;;6.73;100.00
60817;BME280;51921;51.518;-3.188;2023-12-22T11:34:12;101263.75;;;6.58;100.00
60817;BME280;51921;51.518;-3.188;2023-12-22T11:36:38;101255.78;;;6.93;100.00
60817;BME280;51921;51.518;-3.188;2023-12-22T11:39:03;101249.48;;;6.30;100.00
60817;BME280;51921;51.518;-3.188;2023-12-22T11:41:32;101251.78;;;6.35;100.00
60817;BME280;51921;51.518;-3.188;2023-12-22T11:43:55;101254.62;;;6.25;100.00
60817;BME280;51921;51.518;-3.188;2023-12-22T11:46:20;101264.16;;;6.20;100.00
60817;BME280;51921;51.518;-3.188;2023-12-22T11:48:47;101256.67;;;6.41;100.00
60817;BME280;51921;51.518;-3.188;2023-12-22T11:51:12;101246.83;;;6.20;100.00
60817;BME280;51921;51.518;-3.188;2023-12-22T11:53:36;101254.61;;;6.42;100.00
60817;BME280;51921;51.518;-3.188;2023-12-22T11:56:03;101248.99;;;6.70;100.00
60817;BME280;51921;51.518;-3.188;2023-12-22T11:58:35;101260.84;;;6.50;100.00
60817;BME280;51921;51.518;-3.188;2023-12-22T12:00:53;101257.24;;;6.54;100.00
60817;BME280;51921;51.518;-3.188;2023-12-22T12:03:18;101265.57;;;6.71;100.00
60817;BME280;51921;51.518;-3.188;2023-12-22T12:05:44;101271.61;;;6.25;100.00
60817;BME280;51921;51.518;-3.188;2023-12-22T12:08:09;101278.65;;;6.82;100.00
60817;BME280;51921;51.518;-3.188;2023-12-22T12:10:51;101265.75;;;6.86;100.00
60817;BME280;51921;51.518;-3.188;2023-12-22T12:13:05;101260.17;;;6.84;100.00
60817;BME280;51921;51.518;-3.188;2023-12-22T12:15:26;101260.30;;;6.79;100.00
60817;BME280;51921;51.518;-3.188;2023-12-22T12:17:51;101248.06;;;6.84;100.00
60817;BME280;51921;51.518;-3.188;2023-12-22T12:20:17;101232.33;;;6.78;100.00
60817;BME280;51921;51.518;-3.188;2023-12-22T12:22:43;101248.83;;;6.61;100.00
60817;BME280;51921;51.518;-3.188;2023-12-22T12:25:09;101262.55;;;6.63;100.00
60817;BME280;51921;51.518;-3.188;2023-12-22T12:27:34;101252.47;;;7.25;100.00
60817;BME280;51921;51.518;-3.188;2023-12-22T12:29:59;101252.82;;;6.57;100.00
60817;BME280;51921;51.518;-3.188;2023-12-22T12:32:24;101251.43;;;6.94;100.00